Time;durP1;ratioP1;P1;durP2;ratioP2;P2;SDS_P1;SDS_P2;PMS_P1;PMS_P2;Temp;Humidity;BMP_temperature;BMP_pressure;BME280_temperature;BME280_humidity;BME280_pressure;Samples;Min_cycle;Max_cycle;Signal;HPM_P1;HPM_P2
2023/09/07 00:00:00;;;;;;;6.57;4.10;;;;;;;;;;5032734;28;20383;-69
2023/09/07 00:02:25;;;;;;;4.68;4.18;;;;;;;;;;5027657;28;20045;-70
2023/09/07 00:04:51;;;;;;;5.07;4.35;;;;;;;;;;5020532;28;20037;-70
2023/09/07 00:07:16;;;;;;;4.82;4.35;;;;;;;;;;5039596;28;21165;-70
2023/09/07 00:09:41;;;;;;;6.07;4.63;;;;;;;;;;5032371;28;20037;-70
2023/09/07 00:12:07;;;;;;;4.70;4.20;;;;;;;;;;5024699;28;20041;-70
2023/09/07 00:14:32;;;;;;;4.50;4.10;;;;;;;;;;5021518;28;20489;-70
2023/09/07 00:16:58;;;;;;;4.68;4.28;;;;;;;;;;5022195;28;20044;-70
2023/09/07 00:19:23;;;;;;;7.18;4.47;;;;;;;;;;5028332;28;20049;-70
2023/09/07 00:21:51;;;;;;;5.50;4.10;;;;;;;;;;5035586;28;20049;-72
2023/09/07 00:24:17;;;;;;;5.15;4.05;;;;;;;;;;5028977;28;20183;-72
2023/09/07 00:26:44;;;;;;;7.88;4.25;;;;;;;;;;5020536;28;20095;-70
2023/09/07 00:29:10;;;;;;;5.07;4.32;;;;;;;;;;5036957;28;20041;-71
2023/09/07 00:31:35;;;;;;;6.43;4.50;;;;;;;;;;5029526;28;20403;-71
2023/09/07 00:34:01;;;;;;;6.35;4.72;;;;;;;;;;5039320;28;20040;-71
2023/09/07 00:36:26;;;;;;;5.13;4.60;;;;;;;;;;5035436;28;20132;-71
2023/09/07 00:38:51;;;;;;;7.82;5.22;;;;;;;;;;5038080;28;20037;-71
2023/09/07 00:41:17;;;;;;;5.53;4.75;;;;;;;;;;5022845;28;20049;-71
2023/09/07 00:43:42;;;;;;;11.02;5.00;;;;;;;;;;5021167;28;20041;-71
2023/09/07 00:46:08;;;;;;;6.30;4.72;;;;;;;;;;5027204;28;20401;-71
2023/09/07 00:48:35;;;;;;;8.48;5.00;;;;;;;;;;5029017;28;20160;-71
2023/09/07 00:51:00;;;;;;;6.93;5.03;;;;;;;;;;5038264;28;20432;-72
2023/09/07 00:53:27;;;;;;;8.00;4.85;;;;;;;;;;5036405;28;20052;-72
2023/09/07 00:55:55;;;;;;;8.60;4.45;;;;;;;;;;5033539;28;20040;-72
2023/09/07 00:58:21;;;;;;;7.53;5.00;;;;;;;;;;5022311;28;20152;-72
2023/09/07 01:00:48;;;;;;;6.13;4.90;;;;;;;;;;5037552;28;20037;-73
2023/09/07 01:03:14;;;;;;;10.75;5.15;;;;;;;;;;5027095;28;20045;-73
2023/09/07 01:05:58;;;;;;;5.93;4.68;;;;;;;;;;5038307;28;20057;-72
2023/09/07 01:08:28;;;;;;;7.20;5.05;;;;;;;;;;5021258;28;20045;-72
2023/09/07 01:10:54;;;;;;;6.35;5.05;;;;;;;;;;5036177;28;20522;-72
2023/09/07 01:13:20;;;;;;;7.07;4.53;;;;;;;;;;5035653;28;20068;-72
2023/09/07 01:15:47;;;;;;;6.97;5.10;;;;;;;;;;5023496;28;20065;-72
2023/09/07 01:18:13;;;;;;;6.28;4.88;;;;;;;;;;5037954;28;20059;-73
2023/09/07 01:20:40;;;;;;;5.70;4.60;;;;;;;;;;5032936;28;20502;-72
2023/09/07 01:23:07;;;;;;;7.22;4.80;;;;;;;;;;5034322;28;20096;-72
2023/09/07 01:25:34;;;;;;;8.65;5.32;;;;;;;;;;5037912;28;20057;-73
2023/09/07 01:27:59;;;;;;;7.07;4.97;;;;;;;;;;5021937;28;20111;-72
2023/09/07 01:30:27;;;;;;;6.75;4.97;;;;;;;;;;5034927;28;20079;-73
2023/09/07 01:32:52;;;;;;;7.35;5.35;;;;;;;;;;5019122;28;20052;-72
2023/09/07 01:35:21;;;;;;;7.20;5.25;;;;;;;;;;5034668;28;20070;-73
2023/09/07 01:37:48;;;;;;;7.68;5.18;;;;;;;;;;5026431;28;20037;-73
2023/09/07 01:40:13;;;;;;;6.90;4.60;;;;;;;;;;5023194;28;20042;-73
2023/09/07 01:42:39;;;;;;;5.85;5.10;;;;;;;;;;5037786;28;20049;-72
2023/09/07 01:45:05;;;;;;;7.55;5.28;;;;;;;;;;5020513;28;20490;-71
2023/09/07 01:47:30;;;;;;;9.15;5.78;;;;;;;;;;5042118;28;20049;-72
2023/09/07 01:49:56;;;;;;;8.98;5.50;;;;;;;;;;5023748;28;20425;-71
2023/09/07 01:52:21;;;;;;;6.95;5.10;;;;;;;;;;5036307;28;20048;-72
2023/09/07 01:54:47;;;;;;;7.78;5.75;;;;;;;;;;5036683;28;20044;-72
2023/09/07 01:57:12;;;;;;;10.15;6.15;;;;;;;;;;5021126;28;20178;-72
2023/09/07 01:59:38;;;;;;;7.60;5.97;;;;;;;;;;5035867;28;20036;-71
2023/09/07 02:02:03;;;;;;;11.20;5.53;;;;;;;;;;5027911;28;20119;-72
2023/09/07 02:04:29;;;;;;;10.43;6.10;;;;;;;;;;5027234;28;20042;-72
2023/09/07 02:06:54;;;;;;;7.93;5.97;;;;;;;;;;5035958;28;20040;-72
2023/09/07 02:09:20;;;;;;;10.40;6.07;;;;;;;;;;5025582;28;20068;-72
2023/09/07 02:11:45;;;;;;;7.72;5.78;;;;;;;;;;5024340;28;20041;-72
2023/09/07 02:14:10;;;;;;;7.07;5.38;;;;;;;;;;5020350;28;20047;-72
2023/09/07 02:16:36;;;;;;;9.13;5.68;;;;;;;;;;5036419;28;20095;-73
2023/09/07 02:19:03;;;;;;;7.72;6.18;;;;;;;;;;5036490;28;20417;-73
2023/09/07 02:21:29;;;;;;;7.65;5.53;;;;;;;;;;5022371;28;20077;-73
2023/09/07 02:23:54;;;;;;;7.85;5.80;;;;;;;;;;5036715;28;20128;-70
2023/09/07 02:26:19;;;;;;;7.18;5.75;;;;;;;;;;5034771;28;20056;-72
2023/09/07 02:28:45;;;;;;;8.73;4.85;;;;;;;;;;5026755;28;20037;-72
2023/09/07 02:31:11;;;;;;;7.15;5.68;;;;;;;;;;5035704;28;21045;-73
2023/09/07 02:33:36;;;;;;;7.20;5.30;;;;;;;;;;5036740;28;20037;-70
2023/09/07 02:36:03;;;;;;;7.80;5.15;;;;;;;;;;5020877;28;20567;-73
2023/09/07 02:38:28;;;;;;;7.10;5.80;;;;;;;;;;5026948;28;20049;-73
2023/09/07 02:40:55;;;;;;;8.23;6.45;;;;;;;;;;5035963;28;20052;-70
2023/09/07 02:43:22;;;;;;;8.77;6.70;;;;;;;;;;5018746;28;20510;-70
2023/09/07 02:45:49;;;;;;;8.45;6.30;;;;;;;;;;5036117;28;20079;-71
2023/09/07 02:48:15;;;;;;;9.35;5.47;;;;;;;;;;5035295;28;20572;-70
2023/09/07 02:50:41;;;;;;;9.20;5.60;;;;;;;;;;5037055;28;20135;-70
2023/09/07 02:53:06;;;;;;;11.43;6.00;;;;;;;;;;5034873;28;20132;-72
2023/09/07 02:55:32;;;;;;;6.68;5.55;;;;;;;;;;5026350;28;20517;-70
2023/09/07 02:57:59;;;;;;;6.20;5.43;;;;;;;;;;5037050;28;20041;-68
2023/09/07 03:00:24;;;;;;;8.07;6.10;;;;;;;;;;5034875;28;20045;-70
2023/09/07 03:02:50;;;;;;;7.60;6.20;;;;;;;;;;5037529;28;20072;-70
2023/09/07 03:05:16;;;;;;;7.57;5.75;;;;;;;;;;5038820;28;20132;-72
2023/09/07 03:07:45;;;;;;;15.00;6.47;;;;;;;;;;5030365;28;20487;-72
2023/09/07 03:10:10;;;;;;;8.23;6.25;;;;;;;;;;5022680;28;20068;-72
2023/09/07 03:12:36;;;;;;;8.23;6.18;;;;;;;;;;5039837;28;20405;-72
2023/09/07 03:15:03;;;;;;;11.60;7.20;;;;;;;;;;5037686;28;20029;-70
2023/09/07 03:17:29;;;;;;;7.22;6.28;;;;;;;;;;5020900;28;20059;-71
2023/09/07 03:19:55;;;;;;;7.60;6.18;;;;;;;;;;5040597;28;20036;-69
2023/09/07 03:22:21;;;;;;;8.02;6.70;;;;;;;;;;5022145;28;20051;-70
2023/09/07 03:24:51;;;;;;;8.80;5.85;;;;;;;;;;5039358;28;20115;-72
2023/09/07 03:27:16;;;;;;;8.23;5.95;;;;;;;;;;5022773;28;20069;-71
2023/09/07 03:29:44;;;;;;;8.00;6.13;;;;;;;;;;5039652;28;20080;-71
2023/09/07 03:32:09;;;;;;;8.63;6.28;;;;;;;;;;5005160;28;20041;-73
2023/09/07 03:34:34;;;;;;;7.85;6.05;;;;;;;;;;5027487;28;20559;-72
2023/09/07 03:37:00;;;;;;;9.00;6.18;;;;;;;;;;5034643;28;20629;-72
2023/09/07 03:39:25;;;;;;;9.43;6.00;;;;;;;;;;5020149;28;20049;-72
2023/09/07 03:41:52;;;;;;;8.32;7.03;;;;;;;;;;5036999;28;20041;-72
2023/09/07 03:44:17;;;;;;;11.00;6.13;;;;;;;;;;5036060;28;20122;-72
2023/09/07 03:46:44;;;;;;;8.00;6.65;;;;;;;;;;5025004;28;20056;-72
2023/09/07 03:49:10;;;;;;;8.90;6.70;;;;;;;;;;5037760;28;20498;-72
2023/09/07 03:51:36;;;;;;;9.20;6.97;;;;;;;;;;5034580;28;20060;-72
2023/09/07 03:54:02;;;;;;;11.30;6.93;;;;;;;;;;5038142;28;20045;-73
2023/09/07 03:56:27;;;;;;;8.02;7.07;;;;;;;;;;5022193;28;20071;-72
2023/09/07 03:58:52;;;;;;;8.68;6.38;;;;;;;;;;5034584;28;20169;-72
2023/09/07 04:01:18;;;;;;;11.40;6.85;;;;;;;;;;5033635;28;20091;-72
2023/09/07 04:03:43;;;;;;;7.40;6.45;;;;;;;;;;5034791;28;20248;-73
2023/09/07 04:06:09;;;;;;;8.05;6.80;;;;;;;;;;5021312;28;20102;-73
2023/09/07 04:08:35;;;;;;;7.93;6.93;;;;;;;;;;5034012;28;20087;-73
2023/09/07 04:11:05;;;;;;;9.07;6.43;;;;;;;;;;5015852;28;20038;-72
2023/09/07 04:13:30;;;;;;;8.70;7.15;;;;;;;;;;5036065;28;20056;-72
2023/09/07 04:15:56;;;;;;;9.18;6.43;;;;;;;;;;5034399;28;20037;-73
2023/09/07 04:18:21;;;;;;;9.77;6.90;;;;;;;;;;5035697;28;20115;-72
2023/09/07 04:20:47;;;;;;;8.82;6.75;;;;;;;;;;5022477;28;20056;-73
2023/09/07 04:23:14;;;;;;;10.48;7.18;;;;;;;;;;5020314;28;20049;-73
2023/09/07 04:25:40;;;;;;;9.05;7.03;;;;;;;;;;5032067;28;20049;-72
2023/09/07 04:28:06;;;;;;;9.18;6.70;;;;;;;;;;5034493;28;20079;-73
2023/09/07 04:30:32;;;;;;;10.93;7.03;;;;;;;;;;5033764;28;20106;-73
2023/09/07 04:32:58;;;;;;;9.90;7.30;;;;;;;;;;5034724;28;20034;-73
2023/09/07 04:35:30;;;;;;;9.68;7.03;;;;;;;;;;5018958;28;20041;-73
2023/09/07 04:37:55;;;;;;;7.85;6.55;;;;;;;;;;5024982;28;20045;-72
2023/09/07 04:40:22;;;;;;;8.23;6.75;;;;;;;;;;5032176;28;20087;-72
2023/09/07 04:42:47;;;;;;;9.13;6.30;;;;;;;;;;5018698;28;20063;-73
2023/09/07 04:45:13;;;;;;;9.25;6.90;;;;;;;;;;5030283;28;20057;-71
2023/09/07 04:47:38;;;;;;;10.30;6.85;;;;;;;;;;5033825;28;20049;-72
2023/09/07 04:50:04;;;;;;;7.18;6.28;;;;;;;;;;5030090;28;20046;-73
2023/09/07 04:52:30;;;;;;;11.10;6.97;;;;;;;;;;5031475;28;20141;-80
2023/09/07 04:54:56;;;;;;;9.40;6.72;;;;;;;;;;5036507;28;20121;-83
2023/09/07 04:57:21;;;;;;;12.20;6.70;;;;;;;;;;5029817;28;20140;-75
2023/09/07 04:59:47;;;;;;;9.73;7.03;;;;;;;;;;5032008;28;20053;-76
2023/09/07 05:02:13;;;;;;;12.70;8.13;;;;;;;;;;5029048;28;20096;-75
2023/09/07 05:04:38;;;;;;;11.45;8.60;;;;;;;;;;5040520;28;20048;-78
2023/09/07 05:07:04;;;;;;;10.38;7.55;;;;;;;;;;5018613;28;20116;-72
2023/09/07 05:09:30;;;;;;;11.15;7.80;;;;;;;;;;5025378;28;20045;-73
2023/09/07 05:11:56;;;;;;;9.90;7.20;;;;;;;;;;5036578;28;20044;-73
2023/09/07 05:14:23;;;;;;;10.88;7.18;;;;;;;;;;5031907;28;20041;-72
2023/09/07 05:16:49;;;;;;;9.23;6.47;;;;;;;;;;5011351;28;20050;-73
2023/09/07 05:19:15;;;;;;;8.63;7.28;;;;;;;;;;5016376;28;20045;-73
2023/09/07 05:21:42;;;;;;;10.70;6.72;;;;;;;;;;5031243;28;20060;-73
2023/09/07 05:24:08;;;;;;;9.10;7.30;;;;;;;;;;5031195;28;20413;-72
2023/09/07 05:26:33;;;;;;;10.43;6.88;;;;;;;;;;5017339;28;20045;-73
2023/09/07 05:28:59;;;;;;;7.00;5.80;;;;;;;;;;5028892;28;20049;-72
2023/09/07 05:31:24;;;;;;;8.27;6.30;;;;;;;;;;5030265;28;20132;-71
2023/09/07 05:33:51;;;;;;;9.32;5.63;;;;;;;;;;5020652;28;20048;-70
2023/09/07 05:36:17;;;;;;;12.77;5.57;;;;;;;;;;5031954;28;20650;-71
2023/09/07 05:38:43;;;;;;;5.30;4.80;;;;;;;;;;5037830;28;20106;-71
2023/09/07 05:41:08;;;;;;;5.60;5.00;;;;;;;;;;5028468;28;20041;-71
2023/09/07 05:43:34;;;;;;;6.07;5.47;;;;;;;;;;5032103;28;20061;-71
2023/09/07 05:45:59;;;;;;;5.70;4.90;;;;;;;;;;5032432;28;20064;-71
2023/09/07 05:48:25;;;;;;;6.38;4.72;;;;;;;;;;5019239;28;20107;-71
2023/09/07 05:50:50;;;;;;;8.20;4.70;;;;;;;;;;5018169;28;20099;-71
2023/09/07 05:53:19;;;;;;;7.10;5.00;;;;;;;;;;5019692;28;20613;-71
2023/09/07 05:55:44;;;;;;;6.63;4.43;;;;;;;;;;5015092;28;20682;-70
2023/09/07 05:58:11;;;;;;;7.45;4.50;;;;;;;;;;5030633;28;20037;-72
2023/09/07 06:00:42;;;;;;;6.05;4.53;;;;;;;;;;5025345;28;20094;-71
2023/09/07 06:03:08;;;;;;;6.88;4.07;;;;;;;;;;5016699;28;20049;-72
2023/09/07 06:05:35;;;;;;;11.10;4.53;;;;;;;;;;5030076;28;20567;-73
2023/09/07 06:08:00;;;;;;;5.78;4.32;;;;;;;;;;5018155;28;20080;-71
2023/09/07 06:10:29;;;;;;;11.43;4.53;;;;;;;;;;5033764;28;20066;-72
2023/09/07 06:12:54;;;;;;;13.65;4.72;;;;;;;;;;5018957;28;20044;-71
2023/09/07 06:15:20;;;;;;;4.97;4.07;;;;;;;;;;5030337;28;20037;-72
2023/09/07 06:17:46;;;;;;;5.10;4.45;;;;;;;;;;5033771;28;20666;-71
2023/09/07 06:20:12;;;;;;;7.55;4.80;;;;;;;;;;5031242;28;20041;-71
2023/09/07 06:22:38;;;;;;;5.28;4.10;;;;;;;;;;5031550;28;20401;-71
2023/09/07 06:25:04;;;;;;;5.78;4.20;;;;;;;;;;5030054;28;20563;-74
2023/09/07 06:27:30;;;;;;;5.05;4.03;;;;;;;;;;5018245;28;20042;-76
2023/09/07 06:29:55;;;;;;;6.15;4.55;;;;;;;;;;5036013;28;20553;-74
2023/09/07 06:32:21;;;;;;;6.78;4.13;;;;;;;;;;5019421;28;20588;-74
2023/09/07 06:34:47;;;;;;;7.60;4.22;;;;;;;;;;5031963;28;20042;-73
2023/09/07 06:37:13;;;;;;;5.35;4.07;;;;;;;;;;5027200;28;20057;-76
2023/09/07 06:39:39;;;;;;;5.50;3.92;;;;;;;;;;5033476;28;20401;-74
2023/09/07 06:42:04;;;;;;;6.07;4.00;;;;;;;;;;5029885;28;20040;-73
2023/09/07 06:44:37;;;;;;;6.45;4.15;;;;;;;;;;5035582;28;20048;-70
2023/09/07 06:47:03;;;;;;;5.50;4.20;;;;;;;;;;5032833;28;20049;-70
2023/09/07 06:49:29;;;;;;;5.25;4.60;;;;;;;;;;5036786;28;20045;-72
2023/09/07 06:51:56;;;;;;;4.95;4.45;;;;;;;;;;5036390;28;20216;-74
2023/09/07 06:54:22;;;;;;;8.10;4.32;;;;;;;;;;5022065;28;20075;-71
2023/09/07 06:56:47;;;;;;;6.40;4.38;;;;;;;;;;5030297;28;20521;-74
2023/09/07 06:59:14;;;;;;;5.65;3.95;;;;;;;;;;5029247;28;20141;-74
2023/09/07 07:01:39;;;;;;;6.20;4.22;;;;;;;;;;5033616;28;20083;-72
2023/09/07 07:04:05;;;;;;;6.22;4.15;;;;;;;;;;5034399;28;20060;-73
2023/09/07 07:06:30;;;;;;;6.88;4.22;;;;;;;;;;5037747;28;20518;-72
2023/09/07 07:08:56;;;;;;;5.80;4.40;;;;;;;;;;5037585;28;20037;-75
2023/09/07 07:11:21;;;;;;;6.40;4.18;;;;;;;;;;5028831;28;20057;-75
2023/09/07 07:13:47;;;;;;;5.07;4.57;;;;;;;;;;5032973;28;20563;-74
2023/09/07 07:16:13;;;;;;;4.82;4.32;;;;;;;;;;5036970;28;20069;-76
2023/09/07 07:18:39;;;;;;;11.93;5.45;;;;;;;;;;5038584;28;20809;-72
2023/09/07 07:21:05;;;;;;;5.75;4.65;;;;;;;;;;5033786;28;20096;-75
2023/09/07 07:23:31;;;;;;;5.35;4.40;;;;;;;;;;5024041;28;20126;-73
2023/09/07 07:25:57;;;;;;;5.72;4.65;;;;;;;;;;5022906;28;20052;-73
2023/09/07 07:28:24;;;;;;;6.28;4.72;;;;;;;;;;5035197;28;20037;-73
2023/09/07 07:30:52;;;;;;;6.55;4.65;;;;;;;;;;5025739;28;20486;-75
2023/09/07 07:33:17;;;;;;;7.47;4.57;;;;;;;;;;5034701;28;20052;-72
2023/09/07 07:35:43;;;;;;;4.82;4.25;;;;;;;;;;5018077;28;20037;-75
2023/09/07 07:38:08;;;;;;;4.35;3.90;;;;;;;;;;5037203;28;20041;-74
2023/09/07 07:40:36;;;;;;;5.18;4.60;;;;;;;;;;5035980;28;20056;-73
2023/09/07 07:43:03;;;;;;;7.38;4.32;;;;;;;;;;5022614;28;20065;-70
2023/09/07 07:45:29;;;;;;;6.40;4.03;;;;;;;;;;5032349;28;20108;-74
2023/09/07 07:47:55;;;;;;;4.25;3.75;;;;;;;;;;5035870;28;20087;-73
2023/09/07 07:50:20;;;;;;;4.90;4.18;;;;;;;;;;5018219;28;20096;-71
2023/09/07 07:52:47;;;;;;;5.00;4.18;;;;;;;;;;5044760;28;20069;-72
2023/09/07 07:55:13;;;;;;;5.55;4.15;;;;;;;;;;5035318;28;20860;-72
2023/09/07 07:57:40;;;;;;;5.47;4.20;;;;;;;;;;5036164;28;20583;-72
2023/09/07 08:00:09;;;;;;;4.80;4.30;;;;;;;;;;5037736;28;21141;-79
2023/09/07 08:02:45;;;;;;;8.55;4.15;;;;;;;;;;5035173;28;20045;-73
2023/09/07 08:05:11;;;;;;;4.28;3.88;;;;;;;;;;5035952;28;20082;-73
2023/09/07 08:07:38;;;;;;;5.72;4.28;;;;;;;;;;5034236;28;20053;-76
2023/09/07 08:10:04;;;;;;;5.68;4.25;;;;;;;;;;5038525;28;20067;-72
2023/09/07 08:12:30;;;;;;;9.20;4.32;;;;;;;;;;5022152;28;20057;-77
2023/09/07 08:14:55;;;;;;;4.63;4.10;;;;;;;;;;5028307;28;20064;-71
2023/09/07 08:17:23;;;;;;;4.78;4.28;;;;;;;;;;5033033;28;20041;-70
2023/09/07 08:19:49;;;;;;;4.47;3.95;;;;;;;;;;5038148;28;20042;-72
2023/09/07 08:22:16;;;;;;;4.38;3.97;;;;;;;;;;5035707;28;20540;-72
2023/09/07 08:24:44;;;;;;;4.90;4.22;;;;;;;;;;5035963;28;20336;-76
2023/09/07 08:27:18;;;;;;;5.43;4.28;;;;;;;;;;5035959;28;20064;-71
2023/09/07 08:29:48;;;;;;;7.68;4.22;;;;;;;;;;5025301;28;20034;-72
2023/09/07 08:32:14;;;;;;;5.10;4.10;;;;;;;;;;5019545;28;20056;-73
2023/09/07 08:34:41;;;;;;;4.68;3.97;;;;;;;;;;5031105;28;20486;-75
2023/09/07 08:37:08;;;;;;;7.43;4.63;;;;;;;;;;5033325;28;20464;-71
2023/09/07 08:39:34;;;;;;;4.85;4.15;;;;;;;;;;5021001;28;20041;-73
2023/09/07 08:42:00;;;;;;;4.28;3.80;;;;;;;;;;5022334;28;20037;-72
2023/09/07 08:44:27;;;;;;;6.85;4.43;;;;;;;;;;5023128;28;20049;-74
2023/09/07 08:46:53;;;;;;;4.72;3.95;;;;;;;;;;5021306;28;20048;-75
2023/09/07 08:49:19;;;;;;;4.85;3.90;;;;;;;;;;5024917;28;20092;-71
2023/09/07 08:51:44;;;;;;;5.28;4.45;;;;;;;;;;5028865;28;20048;-74
2023/09/07 08:54:12;;;;;;;5.95;4.65;;;;;;;;;;5023599;28;20095;-72
2023/09/07 08:56:37;;;;;;;6.63;4.25;;;;;;;;;;5032867;28;20049;-71
2023/09/07 08:59:04;;;;;;;4.50;4.10;;;;;;;;;;5021641;28;20056;-73
2023/09/07 09:01:31;;;;;;;6.57;4.40;;;;;;;;;;5025082;28;20148;-71
2023/09/07 09:03:57;;;;;;;4.70;4.20;;;;;;;;;;5025103;28;20114;-72
2023/09/07 09:06:23;;;;;;;10.90;4.25;;;;;;;;;;5021180;28;20053;-74
2023/09/07 09:08:54;;;;;;;3.92;3.50;;;;;;;;;;5030724;28;20064;-71
2023/09/07 09:11:20;;;;;;;;;;;;;;;;;;5006403;28;20089;-73
2023/09/07 09:13:47;;;;;;;7.82;4.10;;;;;;;;;;5022605;28;19978;-72
2023/09/07 09:16:13;;;;;;;4.93;4.28;;;;;;;;;;5032460;28;20555;-73
2023/09/07 09:18:52;;;;;;;4.97;3.92;;;;;;;;;;5031560;28;20049;-70
2023/09/07 09:21:25;;;;;;;6.25;3.85;;;;;;;;;;5026379;28;20045;-71
2023/09/07 09:23:52;;;;;;;9.05;3.95;;;;;;;;;;5028437;28;20519;-74
2023/09/07 09:26:19;;;;;;;5.35;3.95;;;;;;;;;;5025451;28;20528;-74
2023/09/07 09:28:45;;;;;;;5.32;3.83;;;;;;;;;;5022924;28;20051;-70
2023/09/07 09:31:14;;;;;;;5.35;4.07;;;;;;;;;;5035320;28;20712;-70
2023/09/07 09:33:48;;;;;;;4.25;3.85;;;;;;;;;;5023301;28;20045;-73
2023/09/07 09:36:13;;;;;;;3.92;3.58;;;;;;;;;;5019154;28;20049;-69
2023/09/07 09:38:39;;;;;;;4.85;3.80;;;;;;;;;;5023814;28;20060;-71
2023/09/07 09:41:06;;;;;;;4.32;3.65;;;;;;;;;;5023351;28;20052;-74
2023/09/07 09:43:31;;;;;;;4.13;3.63;;;;;;;;;;5024275;28;20554;-70
2023/09/07 09:45:58;;;;;;;7.28;3.67;;;;;;;;;;5019507;28;20585;-70
2023/09/07 09:48:23;;;;;;;6.53;4.30;;;;;;;;;;5024568;28;20402;-71
2023/09/07 09:50:50;;;;;;;5.20;3.58;;;;;;;;;;5019966;28;20041;-73
2023/09/07 09:53:18;;;;;;;4.03;3.55;;;;;;;;;;5020766;28;20050;-74
2023/09/07 09:55:48;;;;;;;5.05;3.67;;;;;;;;;;5023502;28;20061;-72
2023/09/07 09:58:15;;;;;;;4.78;3.72;;;;;;;;;;5020741;28;20068;-75
2023/09/07 10:00:55;;;;;;;5.13;4.00;;;;;;;;;;5021124;28;20091;-68
2023/09/07 10:03:26;;;;;;;6.40;3.65;;;;;;;;;;5015321;28;20045;-70
2023/09/07 10:05:52;;;;;;;;;;;;;;;;;;5022884;28;20056;-72
2023/09/07 10:08:19;;;;;;;4.85;3.90;;;;;;;;;;5019024;28;19932;-72
2023/09/07 10:10:48;;;;;;;4.20;3.80;;;;;;;;;;5018195;28;20037;-73
2023/09/07 10:13:14;;;;;;;4.22;3.83;;;;;;;;;;5018891;28;20131;-70
2023/09/07 10:15:40;;;;;;;5.85;4.70;;;;;;;;;;5018298;28;21013;-72
2023/09/07 10:18:13;;;;;;;5.57;4.10;;;;;;;;;;5036562;28;20100;-72
2023/09/07 10:20:56;;;;;;;4.95;3.67;;;;;;;;;;5019057;28;20053;-71
2023/09/07 10:23:42;;;;;;;6.45;3.70;;;;;;;;;;4967178;28;20041;-70
2023/09/07 10:26:14;;;;;;;5.40;3.70;;;;;;;;;;5018644;28;20122;-71
2023/09/07 10:28:40;;;;;;;3.90;3.60;;;;;;;;;;5027820;28;20056;-71
2023/09/07 10:31:12;;;;;;;4.80;3.85;;;;;;;;;;5034710;28;21097;-72
2023/09/07 10:33:38;;;;;;;5.10;3.90;;;;;;;;;;5021262;28;20489;-70
2023/09/07 10:36:05;;;;;;;5.00;3.63;;;;;;;;;;5020843;28;20049;-70
2023/09/07 10:38:35;;;;;;;3.90;3.58;;;;;;;;;;5019145;28;20068;-72
2023/09/07 10:41:02;;;;;;;4.45;3.45;;;;;;;;;;5032523;28;20046;-71
2023/09/07 10:43:32;;;;;;;3.88;3.47;;;;;;;;;;5020431;28;20049;-71
2023/09/07 10:46:00;;;;;;;4.60;4.00;;;;;;;;;;5016720;28;20049;-70
2023/09/07 10:48:28;;;;;;;4.72;4.25;;;;;;;;;;5019506;28;20510;-73
2023/09/07 10:50:54;;;;;;;4.50;4.10;;;;;;;;;;5019544;28;20041;-71
2023/09/07 10:53:27;;;;;;;6.78;4.55;;;;;;;;;;5021376;28;20106;-72
2023/09/07 10:55:53;;;;;;;4.85;4.30;;;;;;;;;;5019363;28;20049;-70
2023/09/07 10:58:30;;;;;;;5.88;4.60;;;;;;;;;;5021711;28;20395;-70
2023/09/07 11:00:56;;;;;;;5.45;4.32;;;;;;;;;;5022361;28;20132;-72
2023/09/07 11:03:24;;;;;;;5.32;3.70;;;;;;;;;;5019106;28;20145;-71
2023/09/07 11:05:51;;;;;;;7.30;3.92;;;;;;;;;;5020983;28;20060;-73
2023/09/07 11:08:16;;;;;;;4.63;3.90;;;;;;;;;;5020596;28;20068;-71
2023/09/07 11:10:42;;;;;;;5.13;4.03;;;;;;;;;;5014846;28;20498;-72
2023/09/07 11:13:09;;;;;;;5.25;4.00;;;;;;;;;;5019064;28;20798;-74
2023/09/07 11:15:35;;;;;;;5.63;4.22;;;;;;;;;;5019041;28;20053;-74
2023/09/07 11:18:05;;;;;;;4.68;3.92;;;;;;;;;;5019297;28;20053;-73
2023/09/07 11:20:31;;;;;;;4.53;4.05;;;;;;;;;;5018726;28;20117;-71
2023/09/07 11:22:57;;;;;;;6.38;4.00;;;;;;;;;;5019276;28;20064;-70
2023/09/07 11:25:22;;;;;;;5.30;4.30;;;;;;;;;;5032489;28;20061;-73
2023/09/07 11:27:47;;;;;;;4.50;3.78;;;;;;;;;;5025688;28;20136;-72
2023/09/07 11:30:13;;;;;;;4.38;3.83;;;;;;;;;;5019372;28;20049;-71
2023/09/07 11:32:40;;;;;;;4.22;3.50;;;;;;;;;;5023575;28;20049;-72
2023/09/07 11:35:08;;;;;;;4.45;3.92;;;;;;;;;;5021433;28;20124;-71
2023/09/07 11:37:35;;;;;;;4.43;3.70;;;;;;;;;;5025290;28;20084;-71
2023/09/07 11:40:01;;;;;;;4.80;3.20;;;;;;;;;;5022544;28;20060;-72
2023/09/07 11:42:26;;;;;;;4.85;3.38;;;;;;;;;;5025390;28;20110;-70
2023/09/07 11:44:52;;;;;;;3.70;3.40;;;;;;;;;;5026372;28;20522;-71
2023/09/07 11:47:17;;;;;;;5.32;3.33;;;;;;;;;;5023308;28;20072;-70
2023/09/07 11:49:42;;;;;;;3.45;3.15;;;;;;;;;;5021169;28;20045;-71
2023/09/07 11:52:08;;;;;;;2.92;2.70;;;;;;;;;;5026446;28;20977;-72
2023/09/07 11:54:33;;;;;;;4.57;2.65;;;;;;;;;;5027171;28;20128;-71
2023/09/07 11:56:59;;;;;;;5.10;2.80;;;;;;;;;;5029312;28;20495;-73
2023/09/07 11:59:24;;;;;;;3.83;2.95;;;;;;;;;;5024910;28;20643;-71
2023/09/07 12:01:49;;;;;;;4.28;3.20;;;;;;;;;;5019130;28;20052;-72
2023/09/07 12:04:15;;;;;;;4.95;2.95;;;;;;;;;;5030007;28;20041;-71
2023/09/07 12:06:41;;;;;;;3.15;2.90;;;;;;;;;;5019941;28;20052;-72
2023/09/07 12:09:07;;;;;;;3.10;2.80;;;;;;;;;;5029190;28;20424;-72
2023/09/07 12:11:33;;;;;;;3.80;3.08;;;;;;;;;;5030533;28;20162;-72
2023/09/07 12:13:58;;;;;;;8.80;3.10;;;;;;;;;;5021004;28;20067;-72
2023/09/07 12:16:25;;;;;;;3.42;2.92;;;;;;;;;;5019205;28;20405;-72
2023/09/07 12:18:51;;;;;;;3.58;3.03;;;;;;;;;;5025726;28;20628;-74
2023/09/07 12:21:16;;;;;;;3.22;2.83;;;;;;;;;;5018920;28;20506;-71
2023/09/07 12:23:41;;;;;;;5.43;3.35;;;;;;;;;;5019019;28;20403;-71
2023/09/07 12:26:08;;;;;;;4.25;2.85;;;;;;;;;;5047875;28;20053;-72
2023/09/07 12:28:34;;;;;;;3.35;2.88;;;;;;;;;;5021958;28;20041;-72
2023/09/07 12:30:59;;;;;;;5.40;2.92;;;;;;;;;;5023068;28;20090;-71
2023/09/07 12:33:25;;;;;;;3.25;2.92;;;;;;;;;;5029062;28;21149;-70
2023/09/07 12:35:51;;;;;;;3.58;3.28;;;;;;;;;;5024086;28;20045;-72
2023/09/07 12:38:18;;;;;;;4.40;2.47;;;;;;;;;;5036485;28;20045;-72
2023/09/07 12:40:44;;;;;;;3.55;2.80;;;;;;;;;;5025253;28;20045;-71
2023/09/07 12:43:10;;;;;;;4.30;3.30;;;;;;;;;;5027658;28;20097;-72
2023/09/07 12:45:35;;;;;;;4.47;2.70;;;;;;;;;;5024152;28;20550;-71
2023/09/07 12:48:01;;;;;;;4.47;3.25;;;;;;;;;;5023265;28;20486;-72
2023/09/07 12:50:27;;;;;;;7.97;3.00;;;;;;;;;;5021592;28;20080;-72
2023/09/07 12:52:54;;;;;;;3.35;2.47;;;;;;;;;;5024479;28;20049;-72
2023/09/07 12:55:20;;;;;;;3.47;2.40;;;;;;;;;;5035107;28;20405;-71
2023/09/07 12:57:46;;;;;;;2.50;2.28;;;;;;;;;;5030230;28;20669;-71
2023/09/07 13:00:12;;;;;;;5.78;2.50;;;;;;;;;;5027172;28;20095;-71
2023/09/07 13:02:38;;;;;;;3.17;2.35;;;;;;;;;;5025886;28;20088;-72
2023/09/07 13:05:07;;;;;;;2.60;2.35;;;;;;;;;;5023536;28;20551;-71
2023/09/07 13:07:32;;;;;;;5.50;2.60;;;;;;;;;;5022828;28;20053;-71
2023/09/07 13:09:58;;;;;;;2.92;2.63;;;;;;;;;;5022064;28;20049;-71
2023/09/07 13:12:24;;;;;;;4.38;2.80;;;;;;;;;;5026410;28;20203;-71
2023/09/07 13:14:49;;;;;;;4.82;3.25;;;;;;;;;;5025674;28;20540;-71
2023/09/07 13:17:15;;;;;;;4.18;2.92;;;;;;;;;;5022813;28;20123;-70
2023/09/07 13:19:41;;;;;;;3.80;2.60;;;;;;;;;;5030929;28;20098;-70
2023/09/07 13:22:07;;;;;;;5.78;2.90;;;;;;;;;;5025541;28;20048;-71
2023/09/07 13:24:33;;;;;;;2.58;2.38;;;;;;;;;;5031427;28;20055;-71
2023/09/07 13:26:58;;;;;;;5.93;2.70;;;;;;;;;;5027144;28;20091;-70
2023/09/07 13:29:26;;;;;;;3.90;2.42;;;;;;;;;;5026728;28;20049;-70
2023/09/07 13:31:53;;;;;;;2.67;2.47;;;;;;;;;;5029639;28;20135;-69
2023/09/07 13:34:19;;;;;;;3.45;2.63;;;;;;;;;;5031718;28;20686;-71
2023/09/07 13:36:44;;;;;;;2.90;2.53;;;;;;;;;;5032993;28;20114;-71
2023/09/07 13:39:10;;;;;;;4.45;2.72;;;;;;;;;;5028475;28;20668;-71
2023/09/07 13:41:35;;;;;;;3.65;2.70;;;;;;;;;;5033113;28;20053;-72
2023/09/07 13:44:01;;;;;;;3.35;2.53;;;;;;;;;;5018981;28;20065;-72
2023/09/07 13:46:27;;;;;;;4.38;2.90;;;;;;;;;;5024828;28;20713;-71
2023/09/07 13:48:52;;;;;;;5.57;2.80;;;;;;;;;;5035501;28;20473;-71
2023/09/07 13:51:18;;;;;;;3.75;2.20;;;;;;;;;;5036711;28;20207;-71
2023/09/07 13:53:43;;;;;;;2.67;2.47;;;;;;;;;;5020512;28;20050;-72
2023/09/07 13:56:08;;;;;;;7.32;2.47;;;;;;;;;;5035140;28;20115;-72
2023/09/07 13:58:34;;;;;;;3.60;2.80;;;;;;;;;;5024279;28;20529;-74
2023/09/07 14:00:59;;;;;;;2.25;2.05;;;;;;;;;;5026797;28;20038;-73
2023/09/07 14:03:24;;;;;;;3.22;2.47;;;;;;;;;;5022579;28;20586;-72
2023/09/07 14:05:50;;;;;;;3.78;2.45;;;;;;;;;;5031932;28;20056;-72
2023/09/07 14:08:15;;;;;;;2.83;2.47;;;;;;;;;;5026535;28;20049;-72
2023/09/07 14:10:41;;;;;;;3.80;2.70;;;;;;;;;;5031884;28;20122;-71
2023/09/07 14:13:06;;;;;;;6.13;2.45;;;;;;;;;;5025015;28;20056;-72
2023/09/07 14:15:32;;;;;;;3.50;2.28;;;;;;;;;;5034005;28;20587;-72
2023/09/07 14:17:57;;;;;;;3.33;2.60;;;;;;;;;;5033910;28;20068;-72
2023/09/07 14:20:23;;;;;;;5.40;2.60;;;;;;;;;;5006239;28;20056;-71
2023/09/07 14:22:48;;;;;;;5.55;2.40;;;;;;;;;;5032380;28;20740;-72
2023/09/07 14:25:16;;;;;;;2.90;2.50;;;;;;;;;;5026103;28;20134;-72
2023/09/07 14:27:41;;;;;;;2.70;2.40;;;;;;;;;;5034300;28;20055;-72
2023/09/07 14:30:07;;;;;;;4.15;2.85;;;;;;;;;;5025079;28;20045;-71
2023/09/07 14:32:32;;;;;;;3.13;2.58;;;;;;;;;;5020460;28;20138;-70
2023/09/07 14:34:58;;;;;;;5.45;2.60;;;;;;;;;;5017869;28;20069;-71
2023/09/07 14:37:24;;;;;;;2.92;2.30;;;;;;;;;;5025930;28;20176;-71